Time;durP1;ratioP1;P1;durP2;ratioP2;P2;SDS_P1;SDS_P2;PMS_P1;PMS_P2;Temp;Humidity;BMP_temperature;BMP_pressure;BME280_temperature;BME280_humidity;BME280_pressure;Samples;Min_cycle;Max_cycle;Signal;HPM_P1;HPM_P2
2023/10/27 00:01:06;;;;;;;2.85;1.70;;;;;;;7.16;100.00;100040.25;5028835;28;20716;-69
2023/10/27 00:03:32;;;;;;;2.38;1.80;;;;;;;7.11;99.43;100029.28;5011498;28;20033;-69
2023/10/27 00:05:57;;;;;;;4.70;1.70;;;;;;;6.98;100.00;100041.53;5011254;28;20067;-69
2023/10/27 00:08:23;;;;;;;2.47;1.60;;;;;;;6.78;100.00;100029.84;5012955;28;20035;-69
2023/10/27 00:10:49;;;;;;;5.50;1.83;;;;;;;6.86;100.00;100032.41;5012871;28;20030;-69
2023/10/27 00:13:14;;;;;;;3.42;1.70;;;;;;;6.96;100.00;100030.22;5028410;28;20519;-69
2023/10/27 00:15:40;;;;;;;2.85;1.75;;;;;;;6.87;100.00;100022.53;5013282;28;20034;-69
2023/10/27 00:18:06;;;;;;;2.45;1.80;;;;;;;6.82;100.00;100040.00;5029072;28;20018;-69
2023/10/27 00:20:31;;;;;;;5.60;1.70;;;;;;;6.90;100.00;100032.84;5029075;28;20029;-69
2023/10/27 00:22:57;;;;;;;3.33;1.70;;;;;;;6.82;100.00;100036.47;5013122;28;20749;-69
2023/10/27 00:25:23;;;;;;;2.58;1.65;;;;;;;6.96;100.00;100032.91;5013444;28;20022;-69
2023/10/27 00:27:49;;;;;;;3.13;1.60;;;;;;;6.75;100.00;100039.09;5011986;28;20117;-69
2023/10/27 00:30:14;;;;;;;4.30;1.70;;;;;;;6.78;100.00;100035.22;5011980;28;20107;-69
2023/10/27 00:32:40;;;;;;;3.38;1.65;;;;;;;6.79;100.00;100037.72;5012754;28;20068;-69
2023/10/27 00:35:05;;;;;;;4.75;1.75;;;;;;;6.93;100.00;100030.59;5013514;28;20038;-69
2023/10/27 00:37:35;;;;;;;2.42;1.70;;;;;;;6.78;100.00;100032.53;5012444;28;20511;-69
2023/10/27 00:40:01;;;;;;;2.92;1.70;;;;;;;6.77;100.00;100023.69;5013289;28;20037;-69
2023/10/27 00:42:27;;;;;;;2.47;1.70;;;;;;;6.97;100.00;100039.88;5012994;28;20069;-69
2023/10/27 00:44:53;;;;;;;3.25;1.63;;;;;;;6.89;100.00;100029.34;5013441;28;20115;-69
2023/10/27 00:47:19;;;;;;;2.88;1.60;;;;;;;7.01;100.00;100029.63;5011599;28;20030;-69
2023/10/27 00:49:44;;;;;;;3.13;1.60;;;;;;;7.23;100.00;100028.56;5013148;28;20131;-69
2023/10/27 00:52:14;;;;;;;3.15;1.50;;;;;;;7.08;100.00;100025.16;5013284;28;20496;-69
2023/10/27 00:54:42;;;;;;;2.30;1.63;;;;;;;7.33;99.76;100022.84;5012095;28;20026;-69
2023/10/27 00:57:07;;;;;;;2.75;1.70;;;;;;;6.92;100.00;100017.41;5012218;28;20083;-69
2023/10/27 00:59:34;;;;;;;4.35;1.70;;;;;;;7.14;100.00;100019.00;5013281;28;20698;-69
2023/10/27 01:01:59;;;;;;;4.35;1.67;;;;;;;7.10;100.00;100016.94;5009367;28;20034;-69
2023/10/27 01:04:25;;;;;;;3.58;1.55;;;;;;;6.99;100.00;100019.13;5011335;28;20145;-69
2023/10/27 01:06:52;;;;;;;2.67;1.85;;;;;;;6.97;100.00;100023.84;5011594;28;20044;-69
2023/10/27 01:09:17;;;;;;;3.40;1.85;;;;;;;6.99;100.00;100012.97;5011857;28;20030;-69
2023/10/27 01:11:44;;;;;;;4.13;1.55;;;;;;;6.99;100.00;100019.13;5011986;28;20044;-69
2023/10/27 01:14:10;;;;;;;2.30;1.45;;;;;;;7.03;100.00;100011.53;5011442;28;20033;-69
2023/10/27 01:16:35;;;;;;;2.60;1.70;;;;;;;6.94;100.00;100007.34;5012394;28;20030;-69
2023/10/27 01:19:01;;;;;;;3.85;1.45;;;;;;;7.04;100.00;100014.00;5007897;28;20468;-69
2023/10/27 01:21:26;;;;;;;3.92;1.77;;;;;;;7.11;100.00;100007.88;4991743;28;20525;-69
2023/10/27 01:23:52;;;;;;;2.15;1.50;;;;;;;6.92;100.00;100009.38;4991956;28;20053;-69
2023/10/27 01:26:17;;;;;;;2.28;1.75;;;;;;;7.03;100.00;100007.03;5032004;28;20030;-69
2023/10/27 01:28:42;;;;;;;2.70;1.55;;;;;;;6.92;100.00;100007.56;5023594;28;20034;-69
2023/10/27 01:31:08;;;;;;;3.10;1.80;;;;;;;6.76;100.00;100006.00;5017822;28;20080;-69
2023/10/27 01:33:34;;;;;;;2.42;1.48;;;;;;;6.80;100.00;100009.13;5014054;28;20052;-70
2023/10/27 01:35:59;;;;;;;4.05;1.73;;;;;;;7.03;100.00;99999.00;5015160;28;20080;-69
2023/10/27 01:38:25;;;;;;;3.22;1.60;;;;;;;7.06;100.00;100003.13;5010764;28;20485;-69
2023/10/27 01:40:50;;;;;;;5.20;1.70;;;;;;;7.21;100.00;100003.00;5010845;28;20034;-69
2023/10/27 01:43:16;;;;;;;4.13;1.70;;;;;;;7.12;100.00;100001.50;5027076;28;20057;-69
2023/10/27 01:45:41;;;;;;;2.15;1.60;;;;;;;7.02;100.00;100001.88;5012603;28;20035;-69
2023/10/27 01:48:07;;;;;;;4.53;1.70;;;;;;;7.09;100.00;100007.28;5026359;28;20352;-69
2023/10/27 01:50:32;;;;;;;3.08;1.60;;;;;;;6.94;100.00;99978.75;5025691;28;20093;-69
2023/10/27 01:52:58;;;;;;;6.78;1.67;;;;;;;7.06;100.00;99989.75;5009916;28;20044;-69
2023/10/27 01:55:24;;;;;;;4.18;1.98;;;;;;;7.04;100.00;99991.78;5011980;28;20033;-69
2023/10/27 01:57:49;;;;;;;3.35;1.58;;;;;;;7.26;100.00;99987.19;5012015;28;20037;-69
2023/10/27 02:00:15;;;;;;;2.95;1.50;;;;;;;7.27;100.00;99991.50;5011893;28;20033;-69
2023/10/27 02:02:41;;;;;;;3.58;1.40;;;;;;;7.12;100.00;99970.25;5027302;28;20037;-69
2023/10/27 02:05:07;;;;;;;2.30;1.40;;;;;;;7.30;100.00;99981.25;5011196;28;20030;-69
2023/10/27 02:07:33;;;;;;;2.40;1.58;;;;;;;7.30;100.00;99975.06;5026598;28;20022;-69
2023/10/27 02:09:59;;;;;;;4.07;1.40;;;;;;;7.42;99.71;99978.84;5010947;28;20482;-69
2023/10/27 02:12:28;;;;;;;3.30;1.50;;;;;;;7.07;100.00;99975.34;5026343;28;20624;-69
2023/10/27 02:14:53;;;;;;;1.80;1.70;;;;;;;7.12;100.00;99978.28;5011121;28;20030;-69
2023/10/27 02:17:19;;;;;;;2.75;1.50;;;;;;;7.18;100.00;99952.56;5027190;28;20508;-69
2023/10/27 02:19:45;;;;;;;3.47;1.70;;;;;;;7.28;100.00;99972.59;5013956;28;20032;-69
2023/10/27 02:22:10;;;;;;;3.05;1.70;;;;;;;7.11;100.00;99970.44;5015600;28;20026;-69
2023/10/27 02:24:37;;;;;;;3.45;1.70;;;;;;;7.10;100.00;99948.22;5008872;28;20079;-69
2023/10/27 02:27:03;;;;;;;1.90;1.63;;;;;;;7.03;100.00;99972.25;5010712;28;20033;-69
2023/10/27 02:29:28;;;;;;;2.72;2.00;;;;;;;7.23;100.00;99976.88;5011643;28;20030;-69
2023/10/27 02:31:54;;;;;;;3.15;1.88;;;;;;;7.19;100.00;99976.47;5021634;28;20089;-69
2023/10/27 02:34:19;;;;;;;3.13;1.90;;;;;;;7.06;100.00;99974.53;5019935;28;20036;-69
2023/10/27 02:36:45;;;;;;;3.58;1.80;;;;;;;7.21;100.00;99974.41;5009137;28;20934;-69
2023/10/27 02:39:10;;;;;;;2.47;1.70;;;;;;;7.35;100.00;99972.63;5007518;28;20030;-69
2023/10/27 02:41:36;;;;;;;2.47;1.63;;;;;;;7.38;100.00;99976.75;5032735;28;20025;-69
2023/10/27 02:44:03;;;;;;;1.83;1.70;;;;;;;7.30;100.00;99980.41;5024150;28;21206;-69
2023/10/27 02:46:28;;;;;;;4.25;2.08;;;;;;;7.18;100.00;99977.47;5009663;28;20453;-69
2023/10/27 02:48:54;;;;;;;2.40;1.88;;;;;;;7.10;100.00;99980.31;5010598;28;20073;-69
2023/10/27 02:51:19;;;;;;;4.10;2.28;;;;;;;7.36;100.00;99976.97;5019669;28;20053;-69
2023/10/27 02:53:45;;;;;;;5.13;1.67;;;;;;;7.28;100.00;99985.13;5014361;28;20148;-69
2023/10/27 02:56:10;;;;;;;3.15;2.13;;;;;;;7.24;100.00;99976.69;5031210;28;20377;-69
2023/10/27 02:58:36;;;;;;;6.70;1.92;;;;;;;7.12;100.00;99972.06;5016027;28;20022;-69
2023/10/27 03:01:09;;;;;;;2.78;1.92;;;;;;;7.18;100.00;99979.31;5025133;28;20037;-69
2023/10/27 03:03:38;;;;;;;2.78;2.17;;;;;;;7.20;100.00;99971.94;5011576;28;20080;-69
2023/10/27 03:06:03;;;;;;;5.25;2.05;;;;;;;7.22;100.00;99975.25;5010304;28;20038;-69
2023/10/27 03:08:29;;;;;;;3.33;1.75;;;;;;;7.25;100.00;99977.50;5025379;28;20029;-69
2023/10/27 03:10:55;;;;;;;3.35;2.00;;;;;;;7.24;100.00;99960.63;5017944;28;20125;-69
2023/10/27 03:13:20;;;;;;;2.72;1.85;;;;;;;7.24;100.00;99975.84;5024250;28;20133;-69
2023/10/27 03:15:46;;;;;;;3.13;2.15;;;;;;;7.28;100.00;99969.94;5008977;28;20432;-69
2023/10/27 03:18:12;;;;;;;4.50;2.00;;;;;;;7.23;100.00;99971.53;5012615;28;20036;-69
2023/10/27 03:20:37;;;;;;;3.38;2.10;;;;;;;7.27;100.00;99970.94;5030815;28;20061;-70
2023/10/27 03:23:03;;;;;;;3.03;2.20;;;;;;;7.30;100.00;99970.53;5014131;28;20170;-69
2023/10/27 03:25:28;;;;;;;6.18;2.10;;;;;;;7.22;100.00;99972.56;5012408;28;20029;-69
2023/10/27 03:27:54;;;;;;;5.97;2.47;;;;;;;7.21;100.00;99966.38;5012034;28;20084;-69
2023/10/27 03:30:19;;;;;;;4.22;2.22;;;;;;;7.11;100.00;99965.91;5026116;28;20038;-69
2023/10/27 03:32:44;;;;;;;4.47;2.35;;;;;;;7.05;100.00;99966.69;5014002;28;20072;-69
2023/10/27 03:35:10;;;;;;;3.83;2.45;;;;;;;7.15;100.00;99963.66;5013396;28;20037;-69
2023/10/27 03:37:35;;;;;;;3.67;2.60;;;;;;;7.03;100.00;99964.22;5035104;28;20034;-69
2023/10/27 03:40:03;;;;;;;3.42;2.70;;;;;;;6.91;100.00;99947.06;5013399;28;20392;-69
2023/10/27 03:42:29;;;;;;;4.47;2.90;;;;;;;6.92;100.00;99967.44;5033629;28;20040;-69
2023/10/27 03:44:55;;;;;;;3.55;2.80;;;;;;;6.99;100.00;99960.28;5012743;28;20026;-70
2023/10/27 03:47:21;;;;;;;7.72;2.70;;;;;;;6.73;100.00;99963.59;5029156;28;20060;-69
2023/10/27 03:49:46;;;;;;;4.90;2.90;;;;;;;6.75;100.00;99968.75;5022951;28;20050;-70
2023/10/27 03:52:11;;;;;;;4.43;2.85;;;;;;;6.78;100.00;99955.00;5013360;28;20041;-69
2023/10/27 03:54:37;;;;;;;6.57;2.78;;;;;;;6.87;100.00;99958.34;5014470;28;20144;-70
2023/10/27 03:57:02;;;;;;;3.33;2.95;;;;;;;6.92;100.00;99966.59;5012829;28;20026;-69
2023/10/27 03:59:28;;;;;;;4.80;2.80;;;;;;;6.78;100.00;99971.03;5013633;28;20034;-70
2023/10/27 04:01:54;;;;;;;3.30;2.70;;;;;;;6.99;100.00;99965.63;5011196;28;20045;-69
2023/10/27 04:04:19;;;;;;;5.65;2.90;;;;;;;6.93;100.00;99958.41;5028188;28;20029;-69
2023/10/27 04:06:45;;;;;;;4.13;2.97;;;;;;;7.13;100.00;99968.41;5013160;28;20499;-69
2023/10/27 04:09:11;;;;;;;4.07;3.10;;;;;;;7.01;100.00;99949.38;5011030;28;20044;-68
2023/10/27 04:11:38;;;;;;;4.30;2.90;;;;;;;7.03;100.00;99964.22;5012208;28;20026;-69
2023/10/27 04:14:04;;;;;;;4.00;2.90;;;;;;;7.05;100.00;99966.69;5029604;28;20155;-70
2023/10/27 04:16:30;;;;;;;3.58;2.65;;;;;;;6.80;100.00;99955.63;5027047;28;20056;-69
2023/10/27 04:18:58;;;;;;;6.15;3.00;;;;;;;6.46;100.00;99911.81;5026832;28;20026;-69
2023/10/27 04:21:23;;;;;;;3.30;2.83;;;;;;;6.71;100.00;99971.00;5010469;28;20072;-69
2023/10/27 04:23:49;;;;;;;5.40;2.97;;;;;;;6.95;100.00;99967.03;5009565;28;20057;-69
2023/10/27 04:26:15;;;;;;;5.78;3.20;;;;;;;6.66;100.00;99941.34;5009886;28;20028;-69
2023/10/27 04:28:42;;;;;;;3.67;3.15;;;;;;;6.93;100.00;99963.75;5010069;28;20032;-69
2023/10/27 04:31:08;;;;;;;4.88;3.40;;;;;;;6.82;100.00;99945.56;5010867;28;20037;-68
2023/10/27 04:33:37;;;;;;;4.25;2.95;;;;;;;6.94;100.00;99961.91;5027935;28;20049;-67
2023/10/27 04:36:06;;;;;;;3.42;3.13;;;;;;;6.82;100.00;99961.59;5027816;28;20117;-68
2023/10/27 04:38:31;;;;;;;4.68;3.20;;;;;;;6.95;100.00;99956.34;5010777;28;20604;-66
2023/10/27 04:40:56;;;;;;;4.78;3.47;;;;;;;7.04;100.00;99957.84;5015976;28;20120;-69
2023/10/27 04:43:22;;;;;;;4.50;3.15;;;;;;;7.00;100.00;99956.59;5010410;28;20022;-70
2023/10/27 04:45:47;;;;;;;5.63;3.45;;;;;;;6.96;100.00;99957.19;5012951;28;20135;-70
2023/10/27 04:48:13;;;;;;;5.07;3.28;;;;;;;6.95;100.00;99942.97;5010258;28;20045;-70
2023/10/27 04:50:39;;;;;;;4.68;3.50;;;;;;;6.92;100.00;99955.91;5010594;28;20038;-70
2023/10/27 04:53:05;;;;;;;4.78;3.38;;;;;;;6.84;100.00;99956.88;5011674;28;20017;-69
2023/10/27 04:55:31;;;;;;;4.20;3.40;;;;;;;6.94;100.00;99954.69;5042282;28;20033;-69
2023/10/27 04:57:56;;;;;;;4.15;3.05;;;;;;;6.93;100.00;99957.56;5010363;28;20034;-70
2023/10/27 05:00:21;;;;;;;5.13;3.13;;;;;;;6.83;100.00;99963.28;5011489;28;20397;-69
2023/10/27 05:02:47;;;;;;;6.20;3.03;;;;;;;6.95;100.00;99961.69;5010875;28;20034;-69
2023/10/27 05:05:12;;;;;;;3.25;2.80;;;;;;;6.86;100.00;99962.88;5026005;28;20030;-69
2023/10/27 05:07:38;;;;;;;6.25;2.70;;;;;;;6.77;100.00;99959.53;5010061;28;20029;-69
2023/10/27 05:10:07;;;;;;;3.40;2.65;;;;;;;6.58;100.00;99947.66;5010448;28;20033;-69
2023/10/27 05:12:33;;;;;;;6.80;3.00;;;;;;;6.71;100.00;99973.66;5009267;28;20037;-70
2023/10/27 05:14:59;;;;;;;3.40;2.47;;;;;;;6.75;100.00;99971.41;5010658;28;20034;-70
2023/10/27 05:17:24;;;;;;;4.20;2.50;;;;;;;6.76;100.00;99973.09;5010697;28;20010;-70
2023/10/27 05:19:49;;;;;;;2.70;2.47;;;;;;;6.72;100.00;99972.66;5015107;28;20040;-69
2023/10/27 05:22:15;;;;;;;2.30;2.10;;;;;;;6.71;100.00;99975.50;5031548;28;20093;-70
2023/10/27 05:24:40;;;;;;;3.55;2.50;;;;;;;6.38;100.00;99956.53;5021228;28;20060;-70
2023/10/27 05:27:06;;;;;;;3.13;2.42;;;;;;;6.52;100.00;99975.19;5010175;28;20508;-70
2023/10/27 05:29:31;;;;;;;2.85;2.55;;;;;;;6.66;100.00;99976.09;5027930;28;20045;-69
2023/10/27 05:31:57;;;;;;;2.67;2.47;;;;;;;6.72;100.00;99977.16;5012544;28;20560;-70
2023/10/27 05:34:22;;;;;;;4.13;2.53;;;;;;;6.42;100.00;99974.66;5027262;28;20083;-70
2023/10/27 05:36:47;;;;;;;3.33;2.38;;;;;;;6.46;100.00;99973.28;5012618;28;20105;-70
2023/10/27 05:39:26;;;;;;;4.32;2.70;;;;;;;6.46;100.00;99978.63;5027539;28;20509;-70
2023/10/27 05:41:52;;;;;;;2.80;2.50;;;;;;;6.37;100.00;99977.09;5012684;28;20584;-70
2023/10/27 05:44:17;;;;;;;3.58;2.80;;;;;;;6.48;100.00;99976.56;5011894;28;20033;-70
2023/10/27 05:46:43;;;;;;;4.90;2.88;;;;;;;6.49;100.00;99972.03;5011417;28;20128;-70
2023/10/27 05:49:08;;;;;;;4.38;3.13;;;;;;;6.55;100.00;99974.75;5011657;28;20505;-70
2023/10/27 05:51:37;;;;;;;3.95;2.80;;;;;;;6.64;100.00;99964.78;5021179;28;20040;-70
2023/10/27 05:54:03;;;;;;;3.55;2.78;;;;;;;6.64;100.00;99964.78;5016423;28;20485;-70
2023/10/27 05:56:28;;;;;;;4.15;3.00;;;;;;;6.52;100.00;99977.00;5011139;28;20026;-70
2023/10/27 05:58:54;;;;;;;3.20;2.83;;;;;;;6.34;100.00;99974.81;5008844;28;20148;-70
2023/10/27 06:01:20;;;;;;;3.28;2.92;;;;;;;6.39;100.00;99974.22;5011075;28;20045;-70
2023/10/27 06:03:46;;;;;;;4.13;3.00;;;;;;;6.42;100.00;99982.66;5028648;28;20568;-70
2023/10/27 06:06:12;;;;;;;5.68;3.10;;;;;;;6.33;100.00;99954.44;5011058;28;20040;-70
2023/10/27 06:08:42;;;;;;;3.28;2.90;;;;;;;6.52;100.00;99987.69;5025746;28;20033;-70
2023/10/27 06:11:08;;;;;;;3.33;3.00;;;;;;;6.40;100.00;99971.38;5012137;28;20396;-70
2023/10/27 06:13:33;;;;;;;4.45;3.05;;;;;;;6.54;100.00;99969.63;5011342;28;20033;-70
2023/10/27 06:15:59;;;;;;;6.40;3.50;;;;;;;6.39;100.00;99976.88;5011612;28;20592;-70
2023/10/27 06:18:24;;;;;;;5.40;3.47;;;;;;;6.24;100.00;99974.28;5010925;28;20547;-70
2023/10/27 06:20:49;;;;;;;5.03;3.75;;;;;;;6.11;100.00;99981.16;5031475;28;20120;-70
2023/10/27 06:23:15;;;;;;;4.90;3.60;;;;;;;6.17;100.00;99981.44;5025945;28;20037;-70
2023/10/27 06:25:41;;;;;;;5.35;3.47;;;;;;;6.44;100.00;99979.81;5038903;28;20030;-70
2023/10/27 06:28:06;;;;;;;4.25;3.85;;;;;;;6.59;100.00;99975.22;5026498;28;20041;-70
2023/10/27 06:30:32;;;;;;;4.90;3.78;;;;;;;6.41;100.00;99970.34;5011651;28;20063;-69
2023/10/27 06:32:57;;;;;;;6.70;3.88;;;;;;;6.29;100.00;99985.22;5008662;28;20452;-70
2023/10/27 06:35:23;;;;;;;4.07;3.67;;;;;;;6.45;100.00;99984.13;5013448;28;20101;-70
2023/10/27 06:37:48;;;;;;;4.85;3.80;;;;;;;6.52;100.00;99988.53;5011060;28;20467;-70
2023/10/27 06:40:14;;;;;;;7.68;4.22;;;;;;;6.61;100.00;99985.72;5010759;28;20085;-70
2023/10/27 06:42:39;;;;;;;5.55;3.97;;;;;;;6.38;100.00;99977.91;5008232;28;20502;-70
2023/10/27 06:45:05;;;;;;;5.40;3.92;;;;;;;6.25;100.00;99981.28;5008241;28;20125;-70
2023/10/27 06:47:30;;;;;;;6.75;4.60;;;;;;;6.30;100.00;99986.91;5026708;28;20037;-70
2023/10/27 06:49:56;;;;;;;4.80;3.97;;;;;;;6.34;100.00;99990.84;5010581;28;20061;-70
2023/10/27 06:52:21;;;;;;;6.65;4.10;;;;;;;6.38;100.00;99993.94;5010572;28;20125;-70
2023/10/27 06:54:47;;;;;;;6.22;3.25;;;;;;;6.41;100.00;99986.38;4991355;28;20474;-70
2023/10/27 06:57:12;;;;;;;8.38;4.20;;;;;;;6.44;100.00;99987.84;5003388;28;20034;-70
2023/10/27 06:59:37;;;;;;;6.93;4.20;;;;;;;6.52;100.00;99996.56;5008768;28;20049;-70
2023/10/27 07:02:03;;;;;;;4.95;4.07;;;;;;;6.30;100.00;99984.22;5009485;28;20037;-70
2023/10/27 07:04:28;;;;;;;5.05;4.50;;;;;;;6.68;100.00;100002.63;5007939;28;20022;-70
2023/10/27 07:06:54;;;;;;;5.45;4.38;;;;;;;6.62;100.00;100006.91;5025578;28;20164;-70
2023/10/27 07:09:20;;;;;;;5.78;4.15;;;;;;;6.52;100.00;99993.88;5008261;28;20034;-70
2023/10/27 07:11:45;;;;;;;5.72;4.47;;;;;;;6.77;100.00;100001.47;5009508;28;20409;-70
2023/10/27 07:14:13;;;;;;;7.20;4.35;;;;;;;6.56;100.00;99987.13;5014024;28;20083;-70
2023/10/27 07:16:41;;;;;;;7.30;4.50;;;;;;;6.56;100.00;99978.28;5026144;28;20026;-70
2023/10/27 07:19:06;;;;;;;7.93;4.88;;;;;;;6.87;100.00;100001.97;5025568;28;20048;-70
2023/10/27 07:21:33;;;;;;;4.32;3.90;;;;;;;6.83;100.00;100001.53;5010180;28;20481;-70
2023/10/27 07:23:59;;;;;;;6.07;4.53;;;;;;;6.81;100.00;99992.03;5026879;28;20026;-70
2023/10/27 07:26:24;;;;;;;8.60;4.50;;;;;;;6.82;100.00;100001.69;5010441;28;20080;-70
2023/10/27 07:28:50;;;;;;;8.95;4.40;;;;;;;6.90;100.00;100009.59;5011176;28;20064;-70
2023/10/27 07:31:15;;;;;;;5.70;4.07;;;;;;;6.75;100.00;100014.19;5026259;28;20033;-69
2023/10/27 07:33:41;;;;;;;5.53;3.95;;;;;;;6.76;100.00;99999.84;5019380;28;20090;-70
2023/10/27 07:36:06;;;;;;;6.25;4.00;;;;;;;6.80;100.00;100009.94;5028499;28;20022;-70
2023/10/27 07:38:34;;;;;;;6.22;4.53;;;;;;;6.74;100.00;100007.22;5019144;28;20485;-70
2023/10/27 07:41:00;;;;;;;5.80;4.00;;;;;;;6.65;100.00;100003.00;5010788;28;20029;-70
2023/10/27 07:43:25;;;;;;;6.38;4.22;;;;;;;6.96;100.00;100008.00;5010571;28;20026;-70
2023/10/27 07:45:54;;;;;;;9.35;4.10;;;;;;;6.91;100.00;99986.34;5011564;28;20022;-70
2023/10/27 07:48:20;;;;;;;8.77;4.50;;;;;;;7.05;100.00;100002.31;5010375;28;20052;-70
2023/10/27 07:50:45;;;;;;;6.70;4.25;;;;;;;7.01;100.00;99993.00;5018092;28;20036;-70
2023/10/27 07:53:11;;;;;;;7.05;4.68;;;;;;;7.17;100.00;100012.44;5015689;28;20033;-70
2023/10/27 07:55:37;;;;;;;6.30;4.40;;;;;;;7.16;100.00;100008.13;5027038;28;20478;-70
2023/10/27 07:58:04;;;;;;;9.57;4.10;;;;;;;6.96;100.00;100010.69;5006805;28;20033;-70
2023/10/27 08:00:30;;;;;;;6.65;4.43;;;;;;;7.11;100.00;100008.69;5009664;28;20030;-70
2023/10/27 08:02:57;;;;;;;6.38;4.47;;;;;;;6.87;100.00;100006.50;5012422;28;20382;-70
2023/10/27 08:05:22;;;;;;;7.55;4.30;;;;;;;6.86;100.00;100011.03;5010343;28;20030;-70
2023/10/27 08:07:48;;;;;;;5.28;4.03;;;;;;;6.88;100.00;100006.28;5025641;28;20057;-70
2023/10/27 08:10:14;;;;;;;7.38;4.15;;;;;;;7.12;100.00;99999.69;5011642;28;20042;-70
2023/10/27 08:12:40;;;;;;;5.40;3.70;;;;;;;7.20;100.00;100004.03;5011454;28;20033;-70
2023/10/27 08:15:06;;;;;;;7.35;4.18;;;;;;;6.89;100.00;100010.63;5012617;28;20021;-70
2023/10/27 08:17:34;;;;;;;5.50;3.50;;;;;;;6.74;100.00;100015.22;5013385;28;20489;-70
2023/10/27 08:20:00;;;;;;;7.78;3.60;;;;;;;6.88;100.00;100011.63;5007254;28;20030;-70
2023/10/27 08:22:25;;;;;;;6.90;3.45;;;;;;;6.77;100.00;100013.00;5011547;28;20026;-70
2023/10/27 08:24:51;;;;;;;5.40;3.70;;;;;;;6.57;100.00;100009.34;5028462;28;20030;-70
2023/10/27 08:27:16;;;;;;;6.25;3.53;;;;;;;6.50;100.00;100022.63;5012664;28;20500;-70
2023/10/27 08:29:41;;;;;;;4.50;3.28;;;;;;;6.53;100.00;100024.13;5028075;28;20037;-70
2023/10/27 08:32:07;;;;;;;5.07;3.08;;;;;;;6.52;100.00;100017.94;5028340;28;20042;-70
2023/10/27 08:34:34;;;;;;;6.05;3.20;;;;;;;6.65;100.00;100017.22;5027946;28;20040;-70
2023/10/27 08:37:00;;;;;;;7.78;3.50;;;;;;;6.65;100.00;100019.88;5012176;28;20616;-70
2023/10/27 08:39:25;;;;;;;6.35;3.33;;;;;;;6.72;100.00;100025.28;5028250;28;20568;-70
2023/10/27 08:41:51;;;;;;;5.05;3.40;;;;;;;6.83;100.00;100012.22;5020525;28;20058;-70
2023/10/27 08:44:18;;;;;;;6.65;3.28;;;;;;;6.72;100.00;100009.25;5027310;28;20084;-70
2023/10/27 08:46:44;;;;;;;6.30;3.00;;;;;;;6.56;100.00;100018.38;5012552;28;20026;-70
2023/10/27 08:49:09;;;;;;;3.80;2.78;;;;;;;6.55;100.00;100022.88;5012764;28;20515;-70
2023/10/27 08:51:39;;;;;;;6.63;3.30;;;;;;;6.90;100.00;100016.81;5012812;28;20107;-70
2023/10/27 08:54:07;;;;;;;5.45;3.40;;;;;;;6.82;100.00;100023.09;5013080;28;20407;-70
2023/10/27 08:56:34;;;;;;;6.13;2.97;;;;;;;6.76;100.00;100031.91;4998053;28;20105;-70
2023/10/27 08:59:00;;;;;;;4.97;3.15;;;;;;;6.66;100.00;100018.06;5031733;28;20040;-70
2023/10/27 09:01:26;;;;;;;3.78;3.00;;;;;;;6.73;100.00;100027.78;5015711;28;20481;-70
2023/10/27 09:04:08;;;;;;;8.85;3.40;;;;;;;6.81;100.00;100024.94;5013228;28;20037;-70
2023/10/27 09:06:35;;;;;;;6.75;3.45;;;;;;;6.76;100.00;100022.03;5014131;28;20575;-70
2023/10/27 09:09:02;;;;;;;5.45;3.08;;;;;;;6.68;100.00;100032.03;5012986;28;20543;-70
2023/10/27 09:11:27;;;;;;;5.25;3.03;;;;;;;6.91;100.00;100018.44;5013332;28;20088;-70
2023/10/27 09:13:53;;;;;;;5.88;3.30;;;;;;;7.10;100.00;100015.09;5013018;28;20025;-70
2023/10/27 09:16:25;;;;;;;5.05;3.33;;;;;;;6.91;100.00;100018.44;5027798;28;20389;-70
2023/10/27 09:18:51;;;;;;;7.45;3.60;;;;;;;7.22;100.00;100021.56;5011539;28;20029;-70
2023/10/27 09:21:30;;;;;;;5.03;3.63;;;;;;;7.19;99.58;100021.94;5012001;28;20115;-70
2023/10/27 09:23:56;;;;;;;4.95;3.50;;;;;;;7.04;100.00;100016.69;5010586;28;20116;-70
2023/10/27 09:26:27;;;;;;;4.53;3.00;;;;;;;7.12;100.00;100017.56;5011675;28;20109;-70
2023/10/27 09:29:01;;;;;;;5.20;2.95;;;;;;;6.97;100.00;100023.03;5026018;28;20029;-70
2023/10/27 09:31:35;;;;;;;6.50;3.63;;;;;;;7.01;99.99;100019.75;5011606;28;20083;-70
2023/10/27 09:34:17;;;;;;;6.28;3.30;;;;;;;6.88;100.00;100025.00;5020542;28;20026;-70
2023/10/27 09:36:48;;;;;;;6.80;3.33;;;;;;;6.89;99.93;100021.31;5011628;28;20036;-70
2023/10/27 09:39:20;;;;;;;8.82;3.40;;;;;;;7.15;100.00;100019.84;5006458;28;20129;-70
2023/10/27 09:41:58;;;;;;;4.93;3.08;;;;;;;7.06;99.53;100016.50;5013355;28;20030;-70
2023/10/27 09:44:34;;;;;;;7.18;3.70;;;;;;;7.11;98.46;100014.06;5016073;28;20037;-70
2023/10/27 09:47:05;;;;;;;4.85;2.97;;;;;;;7.06;99.95;100020.00;5006418;28;20022;-70
2023/10/27 09:49:36;;;;;;;4.53;3.30;;;;;;;6.69;100.00;99989.09;5009607;28;20413;-70
2023/10/27 09:52:08;;;;;;;4.38;3.17;;;;;;;6.76;100.00;99997.16;5010596;28;20037;-70
2023/10/27 09:54:33;;;;;;;5.40;3.50;;;;;;;6.97;99.15;100012.31;5008995;28;20037;-70
2023/10/27 09:57:04;;;;;;;5.63;3.40;;;;;;;6.90;99.19;100020.28;5011152;28;20030;-70
2023/10/27 09:59:30;;;;;;;5.40;3.20;;;;;;;6.70;99.75;100011.31;5012452;28;20132;-70
2023/10/27 10:02:00;;;;;;;5.85;3.17;;;;;;;6.90;99.30;100016.81;5025853;28;20538;-70
2023/10/27 10:04:50;;;;;;;5.70;3.20;;;;;;;6.94;98.18;100023.41;5019042;28;20052;-70
2023/10/27 10:07:31;;;;;;;5.32;3.10;;;;;;;6.70;99.18;100014.78;5020738;28;20396;-70
2023/10/27 10:10:15;;;;;;;5.70;3.15;;;;;;;6.67;100.00;100017.84;5021929;28;20473;-70
2023/10/27 10:13:02;;;;;;;5.68;3.40;;;;;;;6.96;98.05;100018.69;5010893;28;20440;-70
2023/10/27 10:15:33;;;;;;;5.00;3.40;;;;;;;6.74;98.91;100021.41;5011123;28;20045;-70
2023/10/27 10:18:00;;;;;;;6.80;3.60;;;;;;;6.76;98.58;100011.34;5032397;28;20036;-70
2023/10/27 10:20:44;;;;;;;5.00;3.33;;;;;;;7.02;97.89;100023.28;5030417;28;20091;-70
2023/10/27 10:23:14;;;;;;;5.78;3.60;;;;;;;7.23;96.84;100022.38;4999819;28;20022;-70
2023/10/27 10:25:54;;;;;;;5.75;3.10;;;;;;;7.18;96.47;100008.75;5010525;28;20185;-69
2023/10/27 10:28:20;;;;;;;4.82;3.13;;;;;;;7.05;96.09;100020.19;5026425;28;20100;-70
2023/10/27 10:31:17;;;;;;;6.03;3.55;;;;;;;6.86;97.06;100011.03;5010108;28;20436;-70
2023/10/27 10:33:48;;;;;;;6.78;2.90;;;;;;;6.84;97.45;100013.03;5010910;28;20038;-70
2023/10/27 10:36:22;;;;;;;7.03;3.28;;;;;;;7.25;96.59;100014.97;5024638;28;20080;-69
2023/10/27 10:38:55;;;;;;;3.80;2.92;;;;;;;7.21;96.36;100019.06;5009111;28;20022;-69
2023/10/27 10:41:21;;;;;;;5.05;3.38;;;;;;;7.00;95.14;100006.59;5010800;28;20094;-69
2023/10/27 10:44:15;;;;;;;8.02;3.20;;;;;;;7.36;95.02;100025.13;5010966;28;20033;-70
2023/10/27 10:46:43;;;;;;;4.57;2.85;;;;;;;6.93;96.69;100009.22;5012463;28;20026;-69
2023/10/27 10:49:09;;;;;;;4.00;2.85;;;;;;;7.32;95.35;100021.19;5010057;28;20104;-70
2023/10/27 10:51:38;;;;;;;5.65;3.15;;;;;;;7.31;95.01;100022.22;5011626;28;20033;-70
2023/10/27 10:54:11;;;;;;;4.80;2.60;;;;;;;7.51;94.06;100019.63;5027108;28;20497;-69
2023/10/27 10:56:36;;;;;;;7.00;3.03;;;;;;;7.28;94.14;100020.78;5015958;28;20545;-70
2023/10/27 10:59:03;;;;;;;4.43;2.92;;;;;;;6.97;95.23;100015.81;4995513;28;20033;-70
2023/10/27 11:01:29;;;;;;;5.80;3.20;;;;;;;7.25;94.00;100014.97;5010075;28;20501;-69
2023/10/27 11:03:55;;;;;;;5.93;3.13;;;;;;;7.38;93.94;100027.59;5012576;28;20060;-70
2023/10/27 11:06:22;;;;;;;4.25;2.75;;;;;;;7.20;93.20;100022.75;5015113;28;20087;-69
2023/10/27 11:08:47;;;;;;;5.18;3.10;;;;;;;7.32;93.24;100021.19;5028839;28;20026;-70
2023/10/27 11:11:14;;;;;;;4.55;2.42;;;;;;;7.08;92.74;100011.78;5025824;28;20037;-70
2023/10/27 11:13:49;;;;;;;5.25;3.05;;;;;;;7.50;92.98;100013.47;5010626;28;20113;-70
2023/10/27 11:16:21;;;;;;;5.70;3.10;;;;;;;7.48;92.31;100012.84;5010443;28;20060;-70
2023/10/27 11:18:49;;;;;;;4.82;3.00;;;;;;;7.50;92.31;100013.47;5012555;28;20049;-69
2023/10/27 11:21:19;;;;;;;4.43;2.83;;;;;;;7.56;92.14;100011.03;5019178;28;20033;-70
2023/10/27 11:23:45;;;;;;;4.32;2.67;;;;;;;7.69;90.85;100009.22;5028482;28;20026;-69
2023/10/27 11:26:11;;;;;;;5.45;2.83;;;;;;;7.54;90.92;100013.88;5021269;28;20030;-69
2023/10/27 11:28:38;;;;;;;3.58;2.50;;;;;;;7.26;91.34;100011.28;5011612;28;20053;-69
2023/10/27 11:31:14;;;;;;;4.47;2.90;;;;;;;7.42;92.08;100012.81;5026776;28;20038;-69